createdAt,value
2022-10-05T00:00:15.163Z,99295.95
2022-10-05T00:04:23.325Z,99300.79
2022-10-05T00:08:17.085Z,99307.53
2022-10-05T00:12:13.932Z,99309.19
2022-10-05T00:16:20.919Z,99306.02
2022-10-05T00:20:32.265Z,99310.61
2022-10-05T00:24:40.397Z,99308.66
2022-10-05T00:28:51.737Z,99306.58
2022-10-05T00:33:00.134Z,99306.26
2022-10-05T00:37:08.394Z,99304.88
2022-10-05T00:41:25.008Z,99304.73
2022-10-05T00:45:48.353Z,99307.28
2022-10-05T00:50:04.688Z,99307.13
2022-10-05T00:54:08.838Z,99298.27
2022-10-05T00:58:15.441Z,99298.32
2022-10-05T01:02:26.865Z,99295.88
2022-10-05T01:06:39.546Z,99297.75
2022-10-05T01:10:50.527Z,99309.98
2022-10-05T01:15:01.482Z,99317.63
2022-10-05T01:19:12.885Z,99327.15
2022-10-05T01:23:20.656Z,99339.02
2022-10-05T01:27:53.225Z,99336.49
2022-10-05T01:32:13.286Z,99342.16
2022-10-05T01:36:30.492Z,99346.05
2022-10-05T01:40:44.277Z,99349.55
2022-10-05T01:44:58.351Z,99350.77
2022-10-05T01:49:09.396Z,99351.99
2022-10-05T01:53:23.490Z,99350.36
2022-10-05T01:57:40.550Z,99357.16
2022-10-05T02:01:46.997Z,99360.20
2022-10-05T02:06:00.985Z,99360.39
2022-10-05T02:10:15.485Z,99360.41
2022-10-05T02:14:23.610Z,99364.23
2022-10-05T02:18:36.700Z,99365.21
2022-10-05T02:22:43.960Z,99368.63
2022-10-05T02:26:45.368Z,99377.27
2022-10-05T02:30:52.745Z,99377.97
2022-10-05T02:35:02.719Z,99372.38
2022-10-05T02:39:22.998Z,99372.11
2022-10-05T02:43:32.552Z,99378.35
2022-10-05T02:47:46.881Z,99387.69
2022-10-05T02:52:00.456Z,99391.80
2022-10-05T02:56:14.730Z,99398.44
2022-10-05T03:00:23.357Z,99402.50
2022-10-05T03:04:37.831Z,99407.50
2022-10-05T03:08:59.069Z,99415.09
2022-10-05T03:13:10.437Z,99412.02
2022-10-05T03:17:21.726Z,99408.14
2022-10-05T03:21:47.306Z,99407.01
2022-10-05T03:26:11.438Z,99399.38
2022-10-05T03:30:38.090Z,99395.35
2022-10-05T03:34:50.568Z,99398.73
2022-10-05T03:38:59.867Z,99398.77
2022-10-05T03:43:08.018Z,99396.58
2022-10-05T03:47:37.688Z,99396.08
2022-10-05T03:51:57.070Z,99400.00
2022-10-05T03:56:20.635Z,99409.87
2022-10-05T04:00:27.445Z,99412.45
2022-10-05T04:04:35.581Z,99410.29
2022-10-05T04:09:08.773Z,99402.16
2022-10-05T04:13:22.918Z,99395.98
2022-10-05T04:17:32.028Z,99395.57
2022-10-05T04:21:44.391Z,99403.48
2022-10-05T04:25:33.796Z,99409.23
2022-10-05T04:29:42.163Z,99412.50
2022-10-05T04:33:53.484Z,99421.82
2022-10-05T04:38:01.607Z,99428.70
2022-10-05T04:41:57.359Z,99429.77
2022-10-05T04:45:44.040Z,99436.85
2022-10-05T04:49:41.005Z,99439.48
2022-10-05T04:53:47.364Z,99444.59
2022-10-05T04:57:58.586Z,99447.40
2022-10-05T05:02:19.251Z,99443.66
2022-10-05T05:06:17.733Z,99450.36
2022-10-05T05:10:40.268Z,99442.48
2022-10-05T05:14:51.672Z,99445.61
2022-10-05T05:18:55.674Z,99451.51
2022-10-05T05:22:14.326Z,99454.20
2022-10-05T05:26:12.422Z,99454.77
2022-10-05T05:30:22.637Z,99453.70
2022-10-05T05:34:33.776Z,99451.46
2022-10-05T05:38:39.240Z,99457.71
2022-10-05T05:42:55.971Z,99465.69
2022-10-05T05:47:04.560Z,99478.20
2022-10-05T05:51:02.768Z,99482.27
2022-10-05T05:54:57.030Z,99495.05
2022-10-05T05:58:20.337Z,99508.40
2022-10-05T06:02:37.524Z,99512.48
2022-10-05T06:06:41.644Z,99506.33
2022-10-05T06:10:49.328Z,99503.45
2022-10-05T06:14:41.973Z,99498.34
2022-10-05T06:18:38.941Z,99499.23
2022-10-05T06:22:36.867Z,99490.93
2022-10-05T06:26:38.362Z,99490.64
2022-10-05T06:30:36.723Z,99515.57
2022-10-05T06:34:38.685Z,99543.17
2022-10-05T06:38:56.173Z,99540.79
2022-10-05T06:43:21.430Z,99530.55
2022-10-05T06:47:35.186Z,99526.39
2022-10-05T06:51:41.707Z,99512.38
2022-10-05T06:56:04.650Z,99521.06
2022-10-05T07:00:21.852Z,99528.54
2022-10-05T07:04:37.075Z,99522.48
2022-10-05T07:08:21.455Z,99518.59
2022-10-05T07:12:06.205Z,99517.52
2022-10-05T07:16:02.168Z,99509.62
2022-10-05T07:19:57.937Z,99505.02
2022-10-05T07:23:56.459Z,99499.91
2022-10-05T07:27:55.111Z,99503.27
2022-10-05T07:32:10.327Z,99500.42
2022-10-05T07:36:27.973Z,99506.05
2022-10-05T07:40:40.653Z,99514.16
2022-10-05T07:45:07.106Z,99516.66
2022-10-05T07:48:37.877Z,99518.83
2022-10-05T07:52:46.024Z,99507.89
2022-10-05T07:56:35.005Z,99511.40
2022-10-05T08:00:46.074Z,99517.39
2022-10-05T08:04:39.355Z,99515.48
2022-10-05T08:07:58.936Z,99519.35
2022-10-05T08:11:35.528Z,99529.47
2022-10-05T08:15:59.138Z,99523.77
2022-10-05T08:20:10.295Z,99521.96
2022-10-05T08:24:11.359Z,99513.74
2022-10-05T08:28:18.804Z,99510.50
2022-10-05T08:32:15.923Z,99513.67
2022-10-05T08:35:54.283Z,99515.30
2022-10-05T08:39:34.654Z,99514.16
2022-10-05T08:43:46.368Z,99506.81
2022-10-05T08:47:27.563Z,99510.16
2022-10-05T08:51:25.247Z,99503.26
2022-10-05T08:56:00.895Z,99506.13
2022-10-05T09:00:27.187Z,99504.56
2022-10-05T09:04:30.077Z,99506.20
2022-10-05T09:08:34.500Z,99512.44
2022-10-05T09:12:31.230Z,99509.21
2022-10-05T09:16:36.615Z,99518.92
2022-10-05T09:20:56.569Z,99510.48
2022-10-05T09:24:59.655Z,99518.64
2022-10-05T09:29:12.191Z,99516.86
2022-10-05T09:33:26.233Z,99524.70
2022-10-05T09:37:35.843Z,99521.20
2022-10-05T09:42:11.657Z,99524.52
2022-10-05T09:45:27.012Z,99528.09
2022-10-05T09:49:34.950Z,99531.86
2022-10-05T09:53:34.571Z,99528.98
2022-10-05T09:57:42.903Z,99529.68
2022-10-05T10:01:33.497Z,99533.64
2022-10-05T10:05:12.954Z,99539.70
2022-10-05T10:09:21.235Z,99538.95
2022-10-05T10:13:32.271Z,99536.84
2022-10-05T10:17:30.218Z,99530.63
2022-10-05T10:21:30.866Z,99523.15
2022-10-05T10:24:54.629Z,99518.72
2022-10-05T10:28:41.982Z,99512.69
2022-10-05T10:32:30.526Z,99513.89
2022-10-05T10:35:36.593Z,99510.44
2022-10-05T10:39:05.542Z,99506.58
2022-10-05T10:43:03.993Z,99505.81
2022-10-05T10:46:54.865Z,99501.88
2022-10-05T10:50:40.792Z,99493.77
2022-10-05T10:54:14.041Z,99489.73
2022-10-05T10:57:52.204Z,99483.84
2022-10-05T11:02:11.316Z,99476.39
2022-10-05T11:06:24.844Z,99468.95
2022-10-05T11:10:55.526Z,99469.40
2022-10-05T11:14:59.568Z,99467.54
2022-10-05T11:18:57.291Z,99462.96
2022-10-05T11:22:45.095Z,99458.38
2022-10-05T11:26:33.027Z,99461.74
2022-10-05T11:30:48.849Z,99466.20
2022-10-05T11:34:45.575Z,99472.31
2022-10-05T11:38:37.698Z,99476.38
2022-10-05T11:42:38.809Z,99478.77
2022-10-05T11:46:21.186Z,99477.56
2022-10-05T11:50:19.260Z,99478.23
2022-10-05T11:54:23.710Z,99475.66
2022-10-05T11:58:21.532Z,99472.57
2022-10-05T12:01:55.758Z,99477.35
2022-10-05T12:05:48.428Z,99473.09
2022-10-05T12:10:10.279Z,99470.45
2022-10-05T12:14:20.759Z,99471.46
2022-10-05T12:18:40.986Z,99469.13
2022-10-05T12:22:47.410Z,99466.91
2022-10-05T12:26:14.986Z,99461.80
2022-10-05T12:29:30.680Z,99461.41
2022-10-05T12:33:21.131Z,99459.81
2022-10-05T12:36:52.421Z,99458.97
2022-10-05T12:41:05.816Z,99453.04
2022-10-05T12:45:00.209Z,99451.87
2022-10-05T12:48:56.837Z,99450.02
2022-10-05T12:52:48.785Z,99455.71
2022-10-05T12:57:15.259Z,99446.22
2022-10-05T13:01:26.515Z,99450.62
2022-10-05T13:05:40.644Z,99453.10
2022-10-05T13:09:56.566Z,99452.14
2022-10-05T13:14:22.766Z,99447.13
2022-10-05T13:18:21.654Z,99446.48
2022-10-05T13:22:43.925Z,99440.23
2022-10-05T13:26:34.385Z,99439.20
2022-10-05T13:30:35.086Z,99433.59
2022-10-05T13:35:01.565Z,99429.55
2022-10-05T13:38:41.452Z,99414.16
2022-10-05T13:43:03.392Z,99412.70
2022-10-05T13:46:58.867Z,99401.71
2022-10-05T13:51:07.345Z,99402.65
2022-10-05T13:54:43.222Z,99410.75
2022-10-05T13:58:37.537Z,99413.05
2022-10-05T14:02:51.775Z,99418.11
2022-10-05T14:06:31.942Z,99424.52
2022-10-05T14:10:10.278Z,99426.31
2022-10-05T14:13:54.248Z,99426.63
2022-10-05T14:18:03.522Z,99430.08
2022-10-05T14:21:22.237Z,99423.69
2022-10-05T14:24:55.977Z,99420.80
2022-10-05T14:28:45.651Z,99415.89
2022-10-05T14:32:42.760Z,99414.15
2022-10-05T14:36:05.431Z,99413.90
2022-10-05T14:39:15.679Z,99414.45
2022-10-05T14:42:31.390Z,99413.05
2022-10-05T14:46:07.881Z,99415.33
2022-10-05T14:50:31.410Z,99416.31
2022-10-05T14:57:19.587Z,99407.29
2022-10-05T15:00:14.559Z,99413.02
2022-10-05T15:03:44.988Z,99412.99
2022-10-05T15:08:03.163Z,99414.60
2022-10-05T15:12:05.393Z,99415.64
2022-10-05T15:16:25.839Z,99413.69
2022-10-05T15:20:00.790Z,99422.23
2022-10-05T15:23:08.073Z,99417.29
2022-10-05T15:26:11.966Z,99419.94
2022-10-05T15:30:12.362Z,99422.73
2022-10-05T15:34:19.176Z,99427.20
2022-10-05T15:37:54.176Z,99430.80
2022-10-05T15:42:17.373Z,99428.34
2022-10-05T15:46:00.136Z,99423.16
2022-10-05T15:50:06.535Z,99424.98
2022-10-05T15:53:16.997Z,99427.05
2022-10-05T15:56:48.287Z,99424.70
2022-10-05T16:00:45.265Z,99426.59
2022-10-05T16:04:47.263Z,99416.23
2022-10-05T16:08:22.276Z,99407.64
2022-10-05T16:12:07.964Z,99403.40
2022-10-05T16:16:21.257Z,99403.45
2022-10-05T16:20:28.433Z,99398.95
2022-10-05T16:24:35.497Z,99398.98
2022-10-05T16:28:28.242Z,99399.20
2022-10-05T16:32:35.159Z,99404.91
2022-10-05T16:36:50.210Z,99404.88
2022-10-05T16:40:52.710Z,99412.46
2022-10-05T16:44:51.145Z,99417.92
2022-10-05T16:49:07.094Z,99423.95
2022-10-05T16:53:17.175Z,99436.10
2022-10-05T16:57:25.492Z,99435.48
2022-10-05T17:01:32.634Z,99425.77
2022-10-05T17:06:05.551Z,99427.67
2022-10-05T17:10:18.099Z,99430.70
2022-10-05T17:14:35.536Z,99425.13
2022-10-05T17:18:49.860Z,99427.55
2022-10-05T17:22:59.305Z,99427.29
2022-10-05T17:27:15.361Z,99427.96
2022-10-05T17:31:28.595Z,99425.45
2022-10-05T17:35:42.512Z,99436.88
2022-10-05T17:39:50.832Z,99433.59
2022-10-05T17:43:42.290Z,99437.52
2022-10-05T17:47:34.490Z,99438.52
2022-10-05T17:51:36.793Z,99443.29
2022-10-05T17:55:45.377Z,99435.79
2022-10-05T18:00:08.982Z,99435.83
2022-10-05T18:04:03.777Z,99431.63
2022-10-05T18:08:01.277Z,99437.28
2022-10-05T18:10:41.298Z,99430.67
2022-10-05T18:14:07.287Z,99427.13
2022-10-05T18:17:57.212Z,99428.38
2022-10-05T18:22:11.351Z,99425.12
2022-10-05T18:25:52.055Z,99428.23
2022-10-05T18:30:24.524Z,99420.67
2022-10-05T18:34:44.559Z,99415.53
2022-10-05T18:38:55.683Z,99412.11
2022-10-05T18:43:24.943Z,99417.77
2022-10-05T18:47:34.114Z,99422.94
2022-10-05T18:51:32.447Z,99418.09
2022-10-05T18:55:37.090Z,99411.54
2022-10-05T18:59:30.054Z,99410.55
2022-10-05T19:03:20.456Z,99414.88
2022-10-05T19:07:28.634Z,99410.95
2022-10-05T19:11:38.264Z,99426.29
2022-10-05T19:16:05.944Z,99424.34
2022-10-05T19:20:24.059Z,99425.91
2022-10-05T19:24:26.760Z,99425.33
2022-10-05T19:28:55.988Z,99430.98
2022-10-05T19:33:13.277Z,99434.14
2022-10-05T19:37:45.772Z,99438.68
2022-10-05T19:41:55.116Z,99428.17
2022-10-05T19:45:46.050Z,99437.13
2022-10-05T19:49:46.994Z,99442.84
2022-10-05T19:53:31.407Z,99442.73
2022-10-05T19:57:27.783Z,99441.84
2022-10-05T20:01:25.573Z,99447.75
2022-10-05T20:05:35.848Z,99457.53
2022-10-05T20:09:27.341Z,99462.33
2022-10-05T20:13:06.979Z,99454.72
2022-10-05T20:17:05.829Z,99453.05
2022-10-05T20:20:45.812Z,99453.69
2022-10-05T20:24:49.665Z,99457.35
2022-10-05T20:28:56.535Z,99458.90
2022-10-05T20:32:54.591Z,99461.73
2022-10-05T20:37:03.842Z,99456.12
2022-10-05T20:41:12.070Z,99450.77
2022-10-05T20:45:20.216Z,99447.91
2022-10-05T20:49:18.307Z,99452.30
2022-10-05T20:53:26.348Z,99446.24
2022-10-05T20:57:27.294Z,99438.33
2022-10-05T21:01:41.257Z,99427.23
2022-10-05T21:05:39.534Z,99432.16
2022-10-05T21:09:16.371Z,99424.68
2022-10-05T21:13:23.594Z,99417.04
2022-10-05T21:17:18.178Z,99420.81
2022-10-05T21:21:17.207Z,99423.99
2022-10-05T21:25:15.331Z,99419.93
2022-10-05T21:29:16.057Z,99419.91
2022-10-05T21:33:00.246Z,99421.16
2022-10-05T21:37:10.467Z,99419.95
2022-10-05T21:41:18.691Z,99417.43
2022-10-05T21:44:49.433Z,99417.48
2022-10-05T21:48:20.487Z,99414.80
2022-10-05T21:52:28.676Z,99414.48
2022-10-05T21:56:36.866Z,99412.62
2022-10-05T22:00:35.135Z,99417.00
2022-10-05T22:04:47.342Z,99417.19
2022-10-05T22:08:49.005Z,99403.09
2022-10-05T22:12:50.167Z,99400.70
2022-10-05T22:16:58.373Z,99408.23
2022-10-05T22:20:57.234Z,99412.27
2022-10-05T22:25:05.472Z,99411.41
2022-10-05T22:29:13.801Z,99410.97
2022-10-05T22:33:12.446Z,99403.14
2022-10-05T22:37:04.397Z,99398.74
2022-10-05T22:41:11.254Z,99401.67
2022-10-05T22:45:18.269Z,99403.05
2022-10-05T22:49:20.225Z,99406.38
2022-10-05T22:53:29.305Z,99404.56
2022-10-05T22:57:37.597Z,99406.14
2022-10-05T23:01:45.551Z,99407.75
2022-10-05T23:05:53.724Z,99410.99
2022-10-05T23:10:02.041Z,99406.29
2022-10-05T23:14:10.181Z,99408.66
2022-10-05T23:18:10.701Z,99405.86
2022-10-05T23:22:05.176Z,99408.65
2022-10-05T23:26:06.973Z,99415.23
2022-10-05T23:30:15.145Z,99413.30
2022-10-05T23:34:07.306Z,99405.80
2022-10-05T23:38:04.709Z,99399.83
2022-10-05T23:42:12.912Z,99401.42
2022-10-05T23:45:58.491Z,99406.17
2022-10-05T23:50:07.777Z,99401.79
2022-10-05T23:54:14.796Z,99402.30
2022-10-05T23:58:22.913Z,99404.04
